createdAt,value
2022-11-09T00:02:03.042Z,50
2022-11-09T00:07:43.091Z,46
2022-11-09T00:13:24.081Z,48
2022-11-09T00:19:04.634Z,50
2022-11-09T00:24:44.496Z,56
2022-11-09T00:30:25.016Z,46
2022-11-09T00:36:05.110Z,50
2022-11-09T00:41:45.208Z,56
2022-11-09T00:47:25.562Z,40
2022-11-09T00:53:05.575Z,54
2022-11-09T00:58:45.535Z,56
2022-11-09T01:04:25.706Z,48
2022-11-09T01:10:05.585Z,58
2022-11-09T01:15:45.803Z,46
2022-11-09T01:21:27.353Z,54
2022-11-09T01:27:07.724Z,54
2022-11-09T01:32:48.078Z,48
2022-11-09T01:38:28.281Z,46
2022-11-09T01:44:09.447Z,50
2022-11-09T01:49:51.383Z,52
2022-11-09T01:55:31.890Z,54
2022-11-09T02:01:13.814Z,54
2022-11-09T02:06:55.935Z,48
2022-11-09T02:12:37.549Z,44
2022-11-09T02:18:18.870Z,46
2022-11-09T02:24:00.265Z,52
2022-11-09T02:29:41.524Z,54
2022-11-09T02:35:22.590Z,48
2022-11-09T02:41:03.943Z,58
2022-11-09T02:46:45.580Z,54
2022-11-09T02:52:27.060Z,48
2022-11-09T02:58:08.111Z,50
2022-11-09T03:03:49.503Z,48
2022-11-09T03:09:30.496Z,54
2022-11-09T03:15:11.641Z,54
2022-11-09T03:20:52.946Z,44
2022-11-09T03:26:33.649Z,48
2022-11-09T03:32:17.660Z,56
2022-11-09T03:37:59.921Z,44
2022-11-09T03:43:41.348Z,48
2022-11-09T03:49:21.557Z,44
2022-11-09T03:55:02.550Z,54
2022-11-09T04:00:43.621Z,66
2022-11-09T04:06:24.795Z,58
2022-11-09T04:12:05.426Z,54
2022-11-09T04:17:46.952Z,54
2022-11-09T04:23:28.599Z,46
2022-11-09T04:29:09.567Z,52
2022-11-09T04:34:50.715Z,44
2022-11-09T04:40:31.396Z,56
2022-11-09T04:46:12.038Z,46
2022-11-09T04:51:51.932Z,46
2022-11-09T04:57:31.806Z,48
2022-11-09T05:03:12.815Z,54
2022-11-09T05:08:54.301Z,54
2022-11-09T05:14:35.604Z,48
2022-11-09T05:20:16.924Z,52
2022-11-09T05:25:59.023Z,56
2022-11-09T05:31:52.721Z,56
2022-11-09T05:37:33.728Z,58
2022-11-09T05:43:14.995Z,52
2022-11-09T05:48:56.148Z,58
2022-11-09T05:54:36.860Z,46
2022-11-09T06:00:17.537Z,46
2022-11-09T06:06:09.425Z,48
2022-11-09T06:11:51.631Z,40
2022-11-09T06:17:33.297Z,44
2022-11-09T06:23:19.193Z,56
2022-11-09T06:29:01.187Z,52
2022-11-09T06:34:43.411Z,40
2022-11-09T06:40:24.935Z,52
2022-11-09T06:46:05.105Z,46
2022-11-09T06:51:46.509Z,56
2022-11-09T06:57:27.938Z,56
2022-11-09T07:03:09.501Z,54
2022-11-09T07:08:50.998Z,54
2022-11-09T07:14:32.463Z,48
2022-11-09T07:20:14.653Z,44
2022-11-09T07:25:55.118Z,54
2022-11-09T07:31:36.725Z,54
2022-11-09T07:37:18.194Z,54
2022-11-09T07:42:59.207Z,44
2022-11-09T07:48:39.921Z,56
2022-11-09T07:54:20.074Z,54
2022-11-09T08:00:00.138Z,40
2022-11-09T08:05:40.304Z,44
2022-11-09T08:11:20.549Z,44
2022-11-09T08:17:00.638Z,54
2022-11-09T08:22:44.163Z,56
2022-11-09T08:28:25.211Z,44
2022-11-09T08:34:06.797Z,52
2022-11-09T08:39:47.463Z,54
2022-11-09T08:45:27.663Z,44
2022-11-09T08:51:08.080Z,48
2022-11-09T08:56:50.951Z,40
2022-11-09T09:02:31.278Z,44
2022-11-09T09:08:11.751Z,10
2022-11-09T09:13:51.804Z,14
2022-11-09T09:19:31.419Z,52
2022-11-09T09:25:12.311Z,40
2022-11-09T09:30:52.329Z,60
2022-11-09T09:36:32.681Z,56
2022-11-09T09:42:12.884Z,52
2022-11-09T09:47:52.755Z,48
2022-11-09T09:53:33.434Z,48
2022-11-09T09:59:13.380Z,66
2022-11-09T10:04:54.083Z,46
2022-11-09T10:10:35.625Z,58
2022-11-09T10:16:15.470Z,44
2022-11-09T10:21:58.830Z,10
2022-11-09T10:27:38.766Z,54
2022-11-09T10:33:19.173Z,8
2022-11-09T10:38:59.672Z,2
2022-11-09T10:44:40.025Z,46
2022-11-09T10:50:20.327Z,4
2022-11-09T10:56:00.323Z,8
2022-11-09T11:01:41.122Z,4
2022-11-09T11:07:36.971Z,8
2022-11-09T11:13:41.196Z,12
2022-11-09T11:19:21.262Z,4
2022-11-09T11:25:03.688Z,0
2022-11-09T11:30:44.404Z,2
2022-11-09T11:36:27.156Z,20
2022-11-09T11:42:10.401Z,8
2022-11-09T11:47:50.370Z,10
2022-11-09T11:53:30.685Z,6
2022-11-09T11:59:10.816Z,6
2022-11-09T12:04:50.214Z,10
2022-11-09T12:10:32.965Z,10
2022-11-09T12:16:20.589Z,44
2022-11-09T12:22:00.445Z,54
2022-11-09T12:27:40.428Z,52
2022-11-09T12:33:22.323Z,58
2022-11-09T12:39:05.223Z,12
2022-11-09T12:44:45.480Z,16
2022-11-09T12:50:25.987Z,0
2022-11-09T12:56:08.843Z,12
2022-11-09T13:01:49.791Z,2
2022-11-09T13:07:33.770Z,44
2022-11-09T13:13:13.503Z,48
2022-11-09T13:18:54.726Z,46
2022-11-09T13:24:34.800Z,54
2022-11-09T13:30:14.611Z,52
2022-11-09T13:35:54.943Z,50
2022-11-09T13:41:35.132Z,52
2022-11-09T13:47:15.195Z,56
2022-11-09T13:52:55.125Z,56
2022-11-09T13:58:35.218Z,2
2022-11-09T14:04:15.564Z,48
2022-11-09T14:09:56.099Z,56
2022-11-09T14:15:36.088Z,62
2022-11-09T14:21:16.037Z,52
2022-11-09T14:26:56.176Z,54
2022-11-09T14:32:39.387Z,48
2022-11-09T14:38:21.248Z,50
2022-11-09T14:44:05.256Z,56
2022-11-09T14:49:45.334Z,48
2022-11-09T14:55:25.278Z,56
2022-11-09T15:01:06.251Z,54
2022-11-09T15:06:47.126Z,44
2022-11-09T15:12:27.691Z,58
2022-11-09T15:18:09.125Z,48
2022-11-09T15:23:49.757Z,58
2022-11-09T15:29:30.320Z,58
2022-11-09T15:35:10.994Z,46
2022-11-09T15:40:51.462Z,52
2022-11-09T15:46:32.927Z,60
2022-11-09T15:52:14.251Z,46
2022-11-09T15:57:55.573Z,46
2022-11-09T16:03:35.445Z,46
2022-11-09T16:09:15.837Z,46
2022-11-09T16:14:56.163Z,46
2022-11-09T16:20:36.374Z,42
2022-11-09T16:26:17.846Z,52
2022-11-09T16:32:20.781Z,42
2022-11-09T16:38:02.418Z,44
2022-11-09T16:43:43.853Z,54
2022-11-09T16:49:24.165Z,48
2022-11-09T16:55:05.403Z,54
2022-11-09T17:01:24.408Z,56
2022-11-09T17:07:05.552Z,52
2022-11-09T17:12:47.548Z,46
2022-11-09T17:18:27.798Z,54
2022-11-09T17:24:07.933Z,46
2022-11-09T17:29:49.270Z,44
2022-11-09T17:35:30.663Z,46
2022-11-09T17:41:14.379Z,50
2022-11-09T17:46:55.650Z,44
2022-11-09T17:52:35.859Z,46
2022-11-09T17:58:17.320Z,44
2022-11-09T18:04:06.400Z,56
2022-11-09T18:09:49.685Z,54
2022-11-09T18:15:30.007Z,44
2022-11-09T18:21:11.283Z,54
2022-11-09T18:26:51.511Z,60
2022-11-09T18:32:32.249Z,56
2022-11-09T18:38:20.567Z,44
2022-11-09T18:44:10.626Z,52
2022-11-09T18:49:50.599Z,44
2022-11-09T18:55:31.241Z,56
2022-11-09T19:01:12.377Z,52
2022-11-09T19:06:52.906Z,48
2022-11-09T19:12:33.073Z,56
2022-11-09T19:18:13.233Z,56
2022-11-09T19:23:53.940Z,56
2022-11-09T19:29:34.244Z,56
2022-11-09T19:35:14.754Z,52
2022-11-09T19:40:55.522Z,44
2022-11-09T19:46:36.307Z,58
2022-11-09T19:52:19.699Z,56
2022-11-09T19:58:01.235Z,58
2022-11-09T20:03:48.303Z,54
2022-11-09T20:09:44.684Z,56
2022-11-09T20:15:34.252Z,52
2022-11-09T20:21:18.403Z,46
2022-11-09T20:26:59.099Z,56
2022-11-09T20:32:39.456Z,48
2022-11-09T20:38:22.966Z,56
2022-11-09T20:44:08.411Z,48
2022-11-09T20:49:51.691Z,46
2022-11-09T20:55:31.892Z,52
2022-11-09T21:01:18.732Z,44
2022-11-09T21:07:02.631Z,54
2022-11-09T21:12:52.729Z,60
2022-11-09T21:18:32.968Z,56
2022-11-09T21:24:13.161Z,56
2022-11-09T21:29:53.286Z,48
2022-11-09T21:35:33.583Z,56
2022-11-09T21:41:13.660Z,54
2022-11-09T21:46:54.021Z,50
2022-11-09T21:52:34.125Z,56
2022-11-09T21:58:15.561Z,58
2022-11-09T22:03:55.873Z,54
2022-11-09T22:10:11.937Z,56
2022-11-09T22:15:52.557Z,48
2022-11-09T22:21:32.318Z,44
2022-11-09T22:27:12.769Z,48
2022-11-09T22:32:54.380Z,38
2022-11-09T22:38:34.654Z,62
2022-11-09T22:44:14.841Z,56
2022-11-09T22:49:55.968Z,56
2022-11-09T22:55:35.915Z,48
2022-11-09T23:01:17.243Z,52
2022-11-09T23:06:59.349Z,52
2022-11-09T23:12:39.903Z,56
2022-11-09T23:18:20.369Z,54
2022-11-09T23:24:01.899Z,44
2022-11-09T23:29:42.151Z,52
2022-11-09T23:35:22.776Z,54
2022-11-09T23:41:04.212Z,48
2022-11-09T23:46:45.316Z,58
2022-11-09T23:52:26.646Z,56
2022-11-09T23:58:08.142Z,42
